Gleason, Tennessee
Current Conditions -  °F | °C
As of 9:15 AM on Saturday 22 Nov 2014 (Local Time) from KPHT Reporting Station
NA  
Wind Chill: 54°   Ceiling: NA
Heat Index: 54°   Visibility: NA
Dew Point: 37°   Wind: 13mph
Humidity: 54%   Direction: 180°S
Pressure: 30.28"   Gusts: NA
Location:  36.21°N, 88.61°W
Report Text: KPHT 221515Z AUTO 18011KT 12/03 A3028 RMK
Loading
Personal Weather Stations






























Interactive Weather Map New forecast layout! Learn more

10-Day Weather Forecast

Advertisements
Track Severe Weather on mobile